Time;durP1;ratioP1;P1;durP2;ratioP2;P2;SDS_P1;SDS_P2;PMS_P1;PMS_P2;Temp;Humidity;BMP_temperature;BMP_pressure;BME280_temperature;BME280_humidity;BME280_pressure;Samples;Min_cycle;Max_cycle;Signal;HPM_P1;HPM_P2
2023/08/22 00:01:07;;;;;;;10.90;5.15;;;19.90;99.90;;;;;;4880550;29;20112;-71
2023/08/22 00:03:32;;;;;;;10.15;4.82;;;19.90;99.90;;;;;;4898359;29;20064;-71
2023/08/22 00:05:58;;;;;;;7.78;4.93;;;19.90;99.90;;;;;;4886306;29;20064;-71
2023/08/22 00:08:25;;;;;;;8.68;5.07;;;19.90;99.90;;;;;;4898254;29;20502;-71
2023/08/22 00:10:51;;;;;;;8.85;5.18;;;19.90;99.90;;;;;;4877414;29;20048;-72
2023/08/22 00:13:16;;;;;;;8.43;5.63;;;19.90;99.90;;;;;;4865880;29;20079;-70
2023/08/22 00:15:42;;;;;;;9.52;5.00;;;19.90;99.90;;;;;;4890596;29;20084;-70
2023/08/22 00:18:08;;;;;;;9.38;4.47;;;19.90;99.90;;;;;;4890149;29;20455;-71
2023/08/22 00:20:36;;;;;;;11.65;5.32;;;20.00;99.90;;;;;;4896214;29;20159;-70
2023/08/22 00:23:03;;;;;;;9.40;5.32;;;19.90;99.90;;;;;;4897012;29;20562;-72
2023/08/22 00:25:29;;;;;;;9.20;5.68;;;19.90;99.90;;;;;;4888055;29;20053;-71
2023/08/22 00:27:55;;;;;;;12.88;6.13;;;19.90;99.90;;;;;;4896210;29;20052;-71
2023/08/22 00:30:21;;;;;;;10.82;5.75;;;19.90;99.90;;;;;;4896542;29;20479;-71
2023/08/22 00:32:46;;;;;;;10.70;5.95;;;19.90;99.90;;;;;;4895619;29;20087;-72
2023/08/22 00:35:12;;;;;;;10.55;6.00;;;19.90;99.90;;;;;;4896192;29;20104;-70
2023/08/22 00:37:38;;;;;;;10.63;6.20;;;19.90;99.90;;;;;;4882629;29;20423;-71
2023/08/22 00:40:05;;;;;;;12.02;6.15;;;19.90;99.90;;;;;;4884189;29;20058;-71
2023/08/22 00:42:31;;;;;;;11.15;6.43;;;20.00;99.90;;;;;;4894286;29;20057;-71
2023/08/22 00:44:57;;;;;;;10.10;6.07;;;19.90;99.90;;;;;;4896129;29;20502;-71
2023/08/22 00:47:23;;;;;;;10.00;5.60;;;19.90;99.90;;;;;;4896089;29;20056;-71
2023/08/22 00:49:49;;;;;;;11.98;6.30;;;19.90;99.90;;;;;;4884790;29;20060;-71
2023/08/22 00:52:15;;;;;;;14.23;5.80;;;19.90;99.90;;;;;;4884281;29;20100;-70
2023/08/22 00:54:41;;;;;;;11.23;6.22;;;19.80;99.90;;;;;;4890584;29;20052;-70
2023/08/22 00:57:07;;;;;;;14.95;6.80;;;19.80;99.90;;;;;;4864932;29;20056;-70
2023/08/22 00:59:33;;;;;;;10.95;5.85;;;19.80;99.90;;;;;;4889050;29;20049;-70
2023/08/22 01:01:59;;;;;;;9.88;5.22;;;19.70;99.90;;;;;;4870959;29;20071;-70
2023/08/22 01:04:25;;;;;;;10.90;5.75;;;19.70;99.90;;;;;;4886499;29;20061;-70
2023/08/22 01:07:05;;;;;;;11.68;5.97;;;19.70;99.90;;;;;;4893843;29;20056;-70
2023/08/22 01:09:33;;;;;;;13.50;5.70;;;19.70;99.90;;;;;;4895600;29;20498;-76
2023/08/22 01:12:29;;;;;;;10.45;5.70;;;19.60;99.90;;;;;;4892594;29;20120;-70
2023/08/22 01:15:09;;;;;;;13.70;5.82;;;19.60;99.90;;;;;;4876712;29;20053;-70
2023/08/22 01:17:37;;;;;;;10.05;5.20;;;19.60;99.90;;;;;;4864604;29;20131;-71
2023/08/22 01:20:04;;;;;;;11.50;5.50;;;19.60;99.90;;;;;;4889731;29;20056;-70
2023/08/22 01:22:30;;;;;;;10.70;5.50;;;19.50;99.90;;;;;;4892490;29;20558;-71
2023/08/22 01:24:56;;;;;;;9.90;5.10;;;19.40;99.90;;;;;;4894693;29;20123;-70
2023/08/22 01:27:28;;;;;;;8.55;5.25;;;19.40;99.90;;;;;;4869884;29;20049;-71
2023/08/22 01:30:07;;;;;;;11.30;5.22;;;19.40;99.90;;;;;;4882355;29;20111;-70
2023/08/22 01:32:37;;;;;;;9.88;5.35;;;19.30;99.90;;;;;;4891604;29;20045;-77
2023/08/22 01:35:06;;;;;;;11.45;5.07;;;19.30;99.90;;;;;;4896746;29;20055;-70
2023/08/22 01:37:34;;;;;;;8.45;4.90;;;19.30;99.90;;;;;;4882550;29;20132;-70
2023/08/22 01:40:04;;;;;;;9.63;5.15;;;19.30;99.90;;;;;;4895104;29;20092;-70
2023/08/22 01:42:30;;;;;;;9.18;5.10;;;19.30;99.90;;;;;;4875597;29;20099;-70
2023/08/22 01:44:56;;;;;;;12.73;5.85;;;19.30;99.90;;;;;;4877881;29;20958;-71
2023/08/22 01:47:21;;;;;;;12.48;5.72;;;19.30;99.90;;;;;;4862311;29;20053;-70
2023/08/22 01:49:47;;;;;;;10.02;5.63;;;19.30;99.90;;;;;;4847852;29;20052;-71
2023/08/22 01:52:13;;;;;;;8.38;5.43;;;19.20;99.90;;;;;;4880028;29;20099;-70
2023/08/22 01:54:38;;;;;;;13.20;5.53;;;19.30;99.90;;;;;;4879105;29;20041;-71
2023/08/22 01:57:04;;;;;;;9.90;5.38;;;19.20;99.90;;;;;;4872002;29;20049;-70
2023/08/22 01:59:30;;;;;;;10.57;5.57;;;19.20;99.90;;;;;;4889097;29;20092;-71
2023/08/22 02:01:56;;;;;;;9.68;5.43;;;19.20;99.90;;;;;;4881310;29;20056;-70
2023/08/22 02:04:21;;;;;;;11.63;6.43;;;19.20;99.90;;;;;;4895048;29;20065;-73
2023/08/22 02:06:47;;;;;;;14.25;6.03;;;19.20;99.90;;;;;;4894053;29;20503;-73
2023/08/22 02:09:13;;;;;;;11.73;5.85;;;19.20;99.90;;;;;;4883051;29;20092;-71
2023/08/22 02:11:39;;;;;;;10.73;6.75;;;19.20;99.90;;;;;;4892923;29;20045;-76
2023/08/22 02:14:05;;;;;;;10.73;6.50;;;19.10;99.90;;;;;;4898809;29;20052;-71
2023/08/22 02:16:32;;;;;;;13.95;7.18;;;19.10;99.90;;;;;;4878865;29;20044;-70
2023/08/22 02:18:58;;;;;;;12.70;6.85;;;19.10;99.90;;;;;;4885581;29;20053;-70
2023/08/22 02:21:24;;;;;;;11.38;6.10;;;19.10;99.90;;;;;;4888272;29;20047;-71
2023/08/22 02:23:50;;;;;;;12.18;5.78;;;19.00;99.90;;;;;;4867218;29;20052;-71
2023/08/22 02:26:16;;;;;;;10.95;5.82;;;19.00;99.90;;;;;;4883695;29;20526;-70
2023/08/22 02:28:41;;;;;;;10.57;5.93;;;19.00;99.90;;;;;;4885993;29;20155;-77
2023/08/22 02:31:07;;;;;;;9.77;5.70;;;18.90;99.90;;;;;;4900111;29;20048;-70
2023/08/22 02:33:33;;;;;;;10.13;5.90;;;18.90;99.90;;;;;;4877703;29;20048;-71
2023/08/22 02:35:59;;;;;;;8.57;5.78;;;18.80;99.90;;;;;;4865455;29;20064;-71
2023/08/22 02:38:24;;;;;;;9.55;6.00;;;18.80;99.90;;;;;;4879517;29;20057;-70
2023/08/22 02:40:50;;;;;;;11.15;5.55;;;18.80;99.90;;;;;;4878833;29;20045;-71
2023/08/22 02:43:16;;;;;;;8.73;5.35;;;18.70;99.90;;;;;;4879647;29;20061;-70
2023/08/22 02:45:44;;;;;;;10.75;4.95;;;18.70;99.90;;;;;;4865752;29;20092;-70
2023/08/22 02:48:10;;;;;;;11.43;5.95;;;18.60;99.90;;;;;;4881371;29;20049;-73
2023/08/22 02:50:36;;;;;;;11.25;5.50;;;18.60;99.90;;;;;;4864108;29;20569;-71
2023/08/22 02:53:02;;;;;;;9.15;5.45;;;18.60;99.90;;;;;;4866867;29;20116;-71
2023/08/22 02:55:28;;;;;;;10.32;5.80;;;18.60;99.90;;;;;;4879370;29;20053;-70
2023/08/22 02:57:54;;;;;;;10.50;6.15;;;18.50;99.90;;;;;;4879183;29;20053;-71
2023/08/22 03:00:20;;;;;;;11.60;7.30;;;18.50;99.90;;;;;;4880480;29;20088;-70
2023/08/22 03:02:46;;;;;;;15.35;7.20;;;18.60;99.90;;;;;;4878448;29;20084;-75
2023/08/22 03:05:12;;;;;;;9.88;6.65;;;18.50;99.90;;;;;;4862769;29;20115;-70
2023/08/22 03:07:38;;;;;;;9.93;6.38;;;18.50;99.90;;;;;;4879639;29;20496;-70
2023/08/22 03:10:04;;;;;;;9.50;6.75;;;18.50;99.90;;;;;;4889443;29;20045;-70
2023/08/22 03:12:30;;;;;;;14.90;7.43;;;18.50;99.90;;;;;;4891066;29;20053;-70
2023/08/22 03:14:56;;;;;;;10.00;6.63;;;18.40;99.90;;;;;;4880234;29;20055;-71
2023/08/22 03:17:22;;;;;;;11.60;6.63;;;18.40;99.90;;;;;;4848528;29;20056;-70
2023/08/22 03:19:47;;;;;;;8.70;6.40;;;18.40;99.90;;;;;;4864218;29;20199;-74
2023/08/22 03:22:13;;;;;;;12.80;6.85;;;18.40;99.90;;;;;;4878650;29;20045;-71
2023/08/22 03:24:39;;;;;;;10.80;6.47;;;18.40;99.90;;;;;;4876209;29;20054;-70
2023/08/22 03:27:05;;;;;;;13.02;6.68;;;18.30;99.90;;;;;;4847069;29;20049;-70
2023/08/22 03:29:30;;;;;;;10.82;6.45;;;18.30;99.90;;;;;;4847795;29;20052;-70
2023/08/22 03:31:58;;;;;;;9.55;6.20;;;18.30;99.90;;;;;;4880476;29;20052;-73
2023/08/22 03:34:23;;;;;;;11.70;6.93;;;18.30;99.90;;;;;;4888967;29;20075;-71
2023/08/22 03:36:49;;;;;;;10.93;6.70;;;18.30;99.90;;;;;;4878142;29;20491;-71
2023/08/22 03:39:15;;;;;;;12.20;6.47;;;18.20;99.90;;;;;;4878929;29;20048;-71
2023/08/22 03:41:40;;;;;;;9.20;6.30;;;18.20;99.90;;;;;;4878610;29;20049;-70
2023/08/22 03:44:06;;;;;;;13.75;7.45;;;18.20;99.90;;;;;;4885416;29;20384;-71
2023/08/22 03:46:32;;;;;;;10.15;6.88;;;18.20;99.90;;;;;;4878689;29;20045;-70
2023/08/22 03:48:58;;;;;;;9.65;6.70;;;18.20;99.90;;;;;;4879086;29;20055;-71
2023/08/22 03:51:23;;;;;;;11.98;6.97;;;18.20;99.90;;;;;;4877788;29;20049;-70
2023/08/22 03:53:49;;;;;;;10.75;6.63;;;18.20;99.90;;;;;;4886192;29;20476;-70
2023/08/22 03:56:15;;;;;;;10.40;6.93;;;18.10;99.90;;;;;;4877368;29;20045;-70
2023/08/22 03:58:41;;;;;;;12.90;7.13;;;18.10;99.90;;;;;;4878385;29;20060;-70
2023/08/22 04:01:07;;;;;;;11.30;7.15;;;18.10;99.90;;;;;;4877002;29;20052;-70
2023/08/22 04:03:33;;;;;;;9.63;6.63;;;18.10;99.90;;;;;;4878179;29;20044;-70
2023/08/22 04:05:59;;;;;;;11.20;7.25;;;18.10;99.90;;;;;;4849352;29;20063;-70
2023/08/22 04:08:25;;;;;;;13.05;7.55;;;18.10;99.90;;;;;;4879242;29;20128;-70
2023/08/22 04:10:52;;;;;;;13.82;8.20;;;18.10;99.90;;;;;;4877895;29;20146;-71
2023/08/22 04:13:18;;;;;;;12.23;8.32;;;18.00;99.90;;;;;;4877805;29;20113;-71
2023/08/22 04:15:44;;;;;;;12.85;7.82;;;18.00;99.90;;;;;;4864233;29;20052;-71
2023/08/22 04:18:09;;;;;;;12.68;8.32;;;18.00;99.90;;;;;;4861274;29;20049;-70
2023/08/22 04:20:35;;;;;;;15.07;8.05;;;18.00;99.90;;;;;;4878735;29;20045;-71
2023/08/22 04:23:01;;;;;;;10.88;7.45;;;18.00;99.90;;;;;;4861852;29;20049;-70
2023/08/22 04:25:27;;;;;;;12.52;7.63;;;18.00;99.90;;;;;;4886317;29;20100;-70
2023/08/22 04:27:52;;;;;;;12.30;8.10;;;17.90;99.90;;;;;;4881578;29;20455;-70
2023/08/22 04:30:18;;;;;;;15.23;8.45;;;17.90;99.90;;;;;;4877767;29;20065;-70
2023/08/22 04:32:44;;;;;;;15.05;8.73;;;17.90;99.90;;;;;;4878566;29;20049;-70
2023/08/22 04:35:10;;;;;;;13.25;8.55;;;17.90;99.90;;;;;;4877010;29;20056;-71
2023/08/22 04:37:35;;;;;;;14.07;8.52;;;17.90;99.90;;;;;;4862397;29;20152;-71
2023/08/22 04:40:03;;;;;;;15.52;8.32;;;17.90;99.90;;;;;;4861464;29;20053;-77
2023/08/22 04:42:29;;;;;;;13.57;8.15;;;17.90;99.90;;;;;;4867748;29;20048;-71
2023/08/22 04:44:55;;;;;;;13.73;8.43;;;17.90;99.90;;;;;;4885357;29;20060;-71
2023/08/22 04:47:21;;;;;;;14.68;8.73;;;17.90;99.90;;;;;;4877533;29;20037;-71
2023/08/22 04:49:46;;;;;;;11.63;8.60;;;17.90;99.90;;;;;;4862101;29;20063;-71
2023/08/22 04:52:12;;;;;;;15.70;8.68;;;17.90;99.90;;;;;;4845624;29;20057;-71
2023/08/22 04:54:38;;;;;;;13.80;8.80;;;17.90;99.90;;;;;;4881415;29;20067;-70
2023/08/22 04:57:04;;;;;;;14.57;8.75;;;17.90;99.90;;;;;;4884634;29;20053;-76
2023/08/22 04:59:29;;;;;;;14.20;8.85;;;17.90;99.90;;;;;;4878812;29;20044;-70
2023/08/22 05:01:55;;;;;;;15.70;9.32;;;17.90;99.90;;;;;;4857055;29;20116;-70
2023/08/22 05:04:21;;;;;;;18.35;9.68;;;17.90;99.90;;;;;;4875080;29;20076;-71
2023/08/22 05:06:47;;;;;;;12.98;8.48;;;17.90;99.90;;;;;;4877571;29;20123;-70
2023/08/22 05:09:14;;;;;;;13.48;8.68;;;18.00;99.90;;;;;;4867441;29;20053;-70
2023/08/22 05:11:40;;;;;;;16.50;9.20;;;18.00;99.90;;;;;;4869847;29;20499;-70
2023/08/22 05:14:08;;;;;;;16.17;9.05;;;18.00;99.90;;;;;;4864876;29;20289;-75
2023/08/22 05:16:34;;;;;;;14.50;8.30;;;18.00;99.90;;;;;;4867289;29;20049;-70
2023/08/22 05:18:59;;;;;;;16.67;9.20;;;18.00;99.90;;;;;;4884512;29;20052;-71
2023/08/22 05:21:25;;;;;;;14.18;8.32;;;18.10;99.90;;;;;;4881922;29;20033;-69
2023/08/22 05:23:51;;;;;;;13.82;7.97;;;18.10;99.90;;;;;;4883859;29;20056;-70
2023/08/22 05:26:17;;;;;;;17.20;8.13;;;18.20;99.90;;;;;;4848866;29;20065;-70
2023/08/22 05:28:42;;;;;;;18.35;9.02;;;18.20;99.90;;;;;;4879584;29;20142;-69
2023/08/22 05:31:08;;;;;;;12.63;7.57;;;18.30;99.90;;;;;;4878440;29;20491;-75
2023/08/22 05:33:34;;;;;;;11.95;7.53;;;18.40;99.90;;;;;;4876595;29;20045;-69
2023/08/22 05:36:00;;;;;;;13.63;7.60;;;18.50;99.90;;;;;;4880362;29;20057;-70
2023/08/22 05:38:26;;;;;;;11.52;6.32;;;19.00;99.90;;;;;;4876179;29;20221;-72
2023/08/22 05:40:51;;;;;;;13.52;6.68;;;19.80;99.90;;;;;;4889660;29;20045;-71
2023/08/22 05:43:18;;;;;;;13.32;6.50;;;20.60;99.90;;;;;;4862097;29;20053;-70
2023/08/22 05:45:44;;;;;;;13.57;6.40;;;21.20;99.90;;;;;;4877049;29;20515;-70
2023/08/22 05:48:10;;;;;;;11.05;5.40;;;21.50;99.90;;;;;;4877055;29;20049;-76
2023/08/22 05:50:36;;;;;;;10.80;5.28;;;21.90;99.90;;;;;;4877357;29;20419;-70
2023/08/22 05:53:02;;;;;;;9.07;5.35;;;22.40;99.90;;;;;;4868779;29;20128;-70
2023/08/22 05:55:27;;;;;;;11.88;5.68;;;23.10;99.90;;;;;;4885670;29;20053;-70
2023/08/22 05:57:53;;;;;;;9.25;5.05;;;23.60;99.90;;;;;;4883592;29;20460;-71
2023/08/22 06:00:19;;;;;;;10.35;5.22;;;23.80;99.90;;;;;;4884223;29;20057;-71
2023/08/22 06:02:44;;;;;;;8.30;5.22;;;24.00;99.90;;;;;;4865196;29;20051;-70
2023/08/22 06:05:10;;;;;;;12.50;4.90;;;23.90;99.90;;;;;;4869621;29;20072;-71
2023/08/22 06:07:36;;;;;;;9.32;5.35;;;23.90;99.90;;;;;;4887714;29;20160;-70
2023/08/22 06:10:02;;;;;;;9.57;5.57;;;23.90;99.90;;;;;;4885709;29;20507;-71
2023/08/22 06:12:28;;;;;;;8.38;4.93;;;24.10;99.90;;;;;;4860590;29;20049;-70
2023/08/22 06:14:54;;;;;;;8.18;4.95;;;24.20;99.90;;;;;;4876501;29;20052;-71
2023/08/22 06:17:19;;;;;;;8.27;4.97;;;24.30;99.90;;;;;;4883856;29;20092;-70
2023/08/22 06:19:48;;;;;;;9.23;5.05;;;24.50;99.90;;;;;;4877837;29;20179;-71
2023/08/22 06:22:14;;;;;;;10.57;5.50;;;25.10;99.90;;;;;;4875647;29;20055;-76
2023/08/22 06:24:40;;;;;;;8.60;5.55;;;25.60;99.90;;;;;;4861263;29;20049;-70
2023/08/22 06:27:06;;;;;;;7.00;4.63;;;25.70;99.90;;;;;;4862093;29;20045;-70
2023/08/22 06:29:32;;;;;;;8.35;5.20;;;25.50;99.90;;;;;;4865239;29;20053;-71
2023/08/22 06:32:00;;;;;;;9.57;4.90;;;24.90;99.90;;;;;;4877257;29;20395;-71
2023/08/22 06:34:26;;;;;;;11.95;5.70;;;24.30;99.90;;;;;;4875302;29;20049;-70
2023/08/22 06:36:52;;;;;;;7.88;4.95;;;23.90;99.90;;;;;;4861660;29;20056;-71
2023/08/22 06:39:19;;;;;;;10.60;5.10;;;23.70;99.90;;;;;;4887147;29;20053;-77
2023/08/22 06:41:45;;;;;;;9.88;4.95;;;23.90;99.90;;;;;;4877845;29;20403;-71
2023/08/22 06:44:10;;;;;;;11.50;4.80;;;24.30;99.90;;;;;;4880708;29;20045;-71
2023/08/22 06:46:36;;;;;;;7.63;4.55;;;24.70;99.90;;;;;;4863078;29;20127;-70
2023/08/22 06:49:03;;;;;;;10.13;4.80;;;25.20;99.90;;;;;;4879671;29;20045;-71
2023/08/22 06:51:29;;;;;;;7.90;4.97;;;25.60;99.90;;;;;;4881199;29;20475;-70
2023/08/22 06:53:54;;;;;;;7.38;4.72;;;25.80;99.90;;;;;;4869292;29;20505;-69
2023/08/22 06:56:20;;;;;;;8.82;5.00;;;25.70;99.90;;;;;;4880899;29;20049;-75
2023/08/22 06:58:46;;;;;;;8.35;4.28;;;25.40;99.90;;;;;;4878844;29;20425;-70
2023/08/22 07:01:13;;;;;;;8.10;4.80;;;25.10;99.90;;;;;;4880579;29;20041;-73
2023/08/22 07:03:39;;;;;;;8.35;4.22;;;24.90;99.90;;;;;;4879143;29;20944;-72
2023/08/22 07:06:05;;;;;;;7.13;4.20;;;25.00;99.90;;;;;;4878499;29;20092;-71
2023/08/22 07:08:30;;;;;;;7.18;4.07;;;25.20;99.90;;;;;;4884976;29;20092;-71
2023/08/22 07:11:02;;;;;;;7.00;3.90;;;25.40;99.90;;;;;;4884412;29;20061;-70
2023/08/22 07:13:28;;;;;;;8.82;4.38;;;25.30;99.90;;;;;;4884544;29;20491;-72
2023/08/22 07:15:54;;;;;;;8.77;4.40;;;25.30;99.90;;;;;;4879887;29;20064;-69
2023/08/22 07:18:20;;;;;;;6.05;4.00;;;25.50;99.90;;;;;;4860121;29;20045;-69
2023/08/22 07:20:46;;;;;;;9.45;4.97;;;25.70;99.90;;;;;;4879023;29;20435;-69
2023/08/22 07:23:12;;;;;;;9.20;4.50;;;25.60;99.90;;;;;;4880276;29;20056;-70
2023/08/22 07:25:40;;;;;;;7.45;4.25;;;25.90;99.90;;;;;;4862837;29;20081;-70
2023/08/22 07:28:05;;;;;;;8.00;4.10;;;26.20;99.90;;;;;;4878780;29;20418;-69
2023/08/22 07:30:34;;;;;;;7.05;3.97;;;26.50;99.90;;;;;;4879469;29;20044;-69
2023/08/22 07:33:00;;;;;;;8.15;4.38;;;26.60;99.90;;;;;;4879710;29;20049;-69
2023/08/22 07:35:27;;;;;;;8.40;4.43;;;26.30;99.90;;;;;;4882273;29;20059;-78
2023/08/22 07:37:53;;;;;;;10.13;4.60;;;26.00;99.90;;;;;;4879655;29;20093;-69
2023/08/22 07:40:18;;;;;;;9.13;4.47;;;25.90;99.90;;;;;;4878121;29;20041;-69
2023/08/22 07:42:44;;;;;;;8.77;4.22;;;25.80;99.90;;;;;;4878792;29;20064;-69
2023/08/22 07:45:10;;;;;;;10.07;4.20;;;25.60;99.90;;;;;;4877996;29;20129;-69
2023/08/22 07:47:36;;;;;;;7.13;3.47;;;25.70;99.90;;;;;;4877072;29;20045;-69
2023/08/22 07:50:03;;;;;;;7.93;4.03;;;26.20;99.90;;;;;;4879207;29;20124;-72
2023/08/22 07:52:30;;;;;;;7.35;3.50;;;26.70;99.90;;;;;;4877522;29;20087;-71
2023/08/22 07:54:56;;;;;;;9.27;4.00;;;27.10;99.90;;;;;;4878889;29;20049;-70
2023/08/22 07:57:21;;;;;;;7.90;4.10;;;27.50;99.90;;;;;;4862125;29;20118;-71
2023/08/22 07:59:47;;;;;;;7.43;3.58;;;27.50;99.90;;;;;;4877450;29;20057;-72
2023/08/22 08:02:13;;;;;;;5.97;3.83;;;27.50;99.90;;;;;;4877269;29;20041;-70
2023/08/22 08:04:39;;;;;;;10.43;4.30;;;27.10;99.90;;;;;;4877860;29;20419;-72
2023/08/22 08:07:04;;;;;;;6.90;3.80;;;26.80;99.90;;;;;;4878662;29;20053;-70
2023/08/22 08:09:30;;;;;;;7.95;3.80;;;27.00;99.90;;;;;;4877324;29;20118;-76
2023/08/22 08:11:56;;;;;;;6.25;3.70;;;27.50;99.90;;;;;;4862484;29;20064;-69
2023/08/22 08:14:21;;;;;;;7.07;3.80;;;28.30;99.90;;;;;;4878489;29;20053;-70
2023/08/22 08:16:47;;;;;;;6.50;3.55;;;29.20;99.90;;;;;;4877203;29;20053;-71
2023/08/22 08:19:14;;;;;;;6.88;4.00;;;30.00;99.30;;;;;;4861245;29;20185;-70
2023/08/22 08:21:40;;;;;;;6.80;3.65;;;30.50;98.20;;;;;;4863235;29;20463;-75
2023/08/22 08:24:06;;;;;;;6.75;3.70;;;30.90;97.30;;;;;;4865310;29;20166;-70
2023/08/22 08:26:32;;;;;;;7.55;3.50;;;31.50;97.30;;;;;;4868193;29;20128;-76
2023/08/22 08:28:58;;;;;;;9.25;4.07;;;31.90;96.50;;;;;;4885798;29;20052;-69
2023/08/22 08:31:23;;;;;;;5.80;3.20;;;32.20;95.60;;;;;;4877662;29;20193;-69
2023/08/22 08:33:49;;;;;;;6.03;3.20;;;32.50;95.10;;;;;;4878371;29;20041;-69
2023/08/22 08:36:15;;;;;;;6.40;2.67;;;32.70;95.00;;;;;;4877463;29;20051;-70
2023/08/22 08:38:40;;;;;;;6.25;3.15;;;33.00;94.80;;;;;;4877345;29;20483;-70
2023/08/22 08:41:08;;;;;;;5.57;3.10;;;33.40;94.20;;;;;;4878300;29;20487;-70
2023/08/22 08:43:34;;;;;;;5.65;2.95;;;33.70;93.00;;;;;;4875862;29;20472;-79
2023/08/22 08:46:00;;;;;;;4.40;2.83;;;33.70;92.80;;;;;;4877350;29;20053;-70
2023/08/22 08:48:26;;;;;;;6.78;2.30;;;33.30;93.20;;;;;;4876605;29;20508;-70
2023/08/22 08:50:53;;;;;;;4.88;3.00;;;33.00;93.30;;;;;;4861001;29;20045;-73
2023/08/22 08:53:19;;;;;;;5.90;2.47;;;32.40;93.20;;;;;;4880230;29;20132;-72
2023/08/22 08:55:45;;;;;;;5.45;2.20;;;31.80;93.50;;;;;;4877947;29;20045;-71
2023/08/22 08:58:11;;;;;;;5.43;2.30;;;31.60;93.80;;;;;;4878368;29;20131;-70
2023/08/22 09:00:37;;;;;;;5.68;2.40;;;32.00;93.60;;;;;;4879079;29;20120;-79
2023/08/22 09:03:05;;;;;;;4.97;2.38;;;32.60;93.20;;;;;;4883683;29;20129;-71
2023/08/22 09:05:32;;;;;;;3.55;2.35;;;32.90;93.10;;;;;;4844608;29;20065;-71
2023/08/22 09:08:14;;;;;;;7.30;2.75;;;32.80;92.50;;;;;;4878776;29;20053;-69
2023/08/22 09:10:40;;;;;;;5.77;2.57;;;32.60;92.60;;;;;;4878138;29;20041;-70
2023/08/22 09:13:06;;;;;;;4.15;2.22;;;32.10;93.20;;;;;;4879594;29;20334;-70
2023/08/22 09:15:33;;;;;;;5.82;2.45;;;31.70;93.50;;;;;;4878132;29;20045;-72
2023/08/22 09:17:58;;;;;;;4.15;2.05;;;31.20;93.60;;;;;;4879591;29;20112;-70
2023/08/22 09:20:24;;;;;;;4.53;2.47;;;30.90;93.80;;;;;;4877367;29;20123;-69
2023/08/22 09:22:50;;;;;;;2.90;1.55;;;30.90;93.90;;;;;;4877770;29;20079;-69
2023/08/22 09:25:16;;;;;;;5.25;2.08;;;30.80;93.30;;;;;;4882928;29;20052;-70
2023/08/22 09:27:48;;;;;;;4.22;2.17;;;30.80;93.10;;;;;;4880180;29;20500;-70
2023/08/22 09:30:15;;;;;;;4.80;2.03;;;30.90;93.50;;;;;;4860333;29;20052;-70
2023/08/22 09:32:41;;;;;;;3.42;1.85;;;31.00;93.50;;;;;;4883719;29;20057;-77
2023/08/22 09:35:07;;;;;;;5.80;2.58;;;31.10;93.80;;;;;;4870728;29;20089;-70
2023/08/22 09:37:35;;;;;;;5.60;2.25;;;31.20;93.50;;;;;;4877086;29;20052;-68
2023/08/22 09:40:05;;;;;;;6.22;2.60;;;31.20;93.60;;;;;;4877316;29;20171;-74
2023/08/22 09:42:31;;;;;;;3.78;2.00;;;31.20;93.80;;;;;;4870763;29;20049;-69
2023/08/22 09:44:57;;;;;;;4.50;2.13;;;31.00;94.00;;;;;;4890008;29;20061;-70
2023/08/22 09:47:29;;;;;;;6.35;2.60;;;30.80;94.00;;;;;;4877868;29;20439;-70
2023/08/22 09:49:58;;;;;;;7.47;2.65;;;30.70;93.70;;;;;;4872869;29;20092;-68
2023/08/22 09:52:25;;;;;;;5.63;2.58;;;30.20;93.90;;;;;;4888283;29;20049;-67
2023/08/22 09:54:55;;;;;;;6.00;2.70;;;30.00;94.10;;;;;;4884578;29;20508;-68
2023/08/22 09:57:23;;;;;;;7.50;2.60;;;29.80;94.20;;;;;;4876168;29;20113;-68
2023/08/22 09:59:49;;;;;;;6.03;2.80;;;29.50;94.40;;;;;;4877283;29;20187;-68
2023/08/22 10:02:18;;;;;;;6.75;3.08;;;29.40;94.70;;;;;;4877206;29;20060;-68
2023/08/22 10:04:45;;;;;;;5.90;3.15;;;29.20;94.90;;;;;;4881064;29;20065;-76
2023/08/22 10:07:11;;;;;;;5.15;2.70;;;29.20;95.20;;;;;;4877525;29;20049;-68
2023/08/22 10:09:39;;;;;;;7.47;3.30;;;29.10;95.30;;;;;;4876063;29;20049;-69
2023/08/22 10:12:08;;;;;;;6.53;3.60;;;29.10;95.50;;;;;;4876967;29;20629;-69
2023/08/22 10:14:46;;;;;;;7.57;3.70;;;29.00;95.60;;;;;;4877092;29;20044;-68
2023/08/22 10:17:13;;;;;;;6.88;3.88;;;28.80;96.30;;;;;;4879841;29;20079;-69
2023/08/22 10:19:40;;;;;;;6.47;3.30;;;28.60;96.20;;;;;;4879861;29;20377;-69
2023/08/22 10:22:11;;;;;;;6.43;3.50;;;28.50;96.30;;;;;;4879004;29;20063;-69
2023/08/22 10:24:37;;;;;;;8.45;3.58;;;28.50;96.50;;;;;;4880248;29;20057;-71
2023/08/22 10:27:04;;;;;;;7.85;3.50;;;28.40;96.30;;;;;;4879361;29;20155;-71
2023/08/22 10:29:35;;;;;;;6.95;3.63;;;28.40;96.70;;;;;;4881176;29;20148;-69
2023/08/22 10:32:01;;;;;;;7.75;3.45;;;28.30;96.80;;;;;;4879935;29;20493;-69
2023/08/22 10:34:39;;;;;;;7.53;3.58;;;28.20;96.90;;;;;;4879915;29;20124;-69
2023/08/22 10:37:16;;;;;;;7.15;3.53;;;28.20;97.00;;;;;;4878654;29;20097;-72
2023/08/22 10:39:49;;;;;;;7.22;3.75;;;28.30;97.30;;;;;;4864026;29;20140;-68
2023/08/22 10:42:19;;;;;;;8.73;3.88;;;28.30;97.30;;;;;;4878364;29;20052;-69
2023/08/22 10:44:52;;;;;;;7.75;3.30;;;28.40;97.60;;;;;;4872837;29;20069;-69
2023/08/22 10:47:20;;;;;;;6.65;2.92;;;28.50;97.80;;;;;;4887817;29;20077;-69
2023/08/22 10:49:53;;;;;;;7.10;3.30;;;28.60;97.50;;;;;;4894026;29;20056;-69
2023/08/22 10:52:33;;;;;;;6.72;3.17;;;28.80;97.80;;;;;;4899244;29;20052;-69
2023/08/22 10:55:03;;;;;;;7.72;3.30;;;28.90;97.20;;;;;;4893588;29;20065;-68
2023/08/22 10:57:31;;;;;;;5.88;2.50;;;28.90;96.90;;;;;;4890127;29;20523;-70
2023/08/22 11:00:14;;;;;;;6.68;2.53;;;28.90;96.30;;;;;;4898573;29;20067;-70
2023/08/22 11:02:42;;;;;;;6.95;3.05;;;28.80;95.40;;;;;;4898295;29;20163;-70
2023/08/22 11:05:11;;;;;;;5.03;2.67;;;28.60;95.60;;;;;;4897259;29;20079;-69
2023/08/22 11:07:41;;;;;;;5.72;3.03;;;28.60;96.30;;;;;;4888257;29;20189;-69
2023/08/22 11:10:13;;;;;;;3.83;2.95;;;28.40;96.30;;;;;;4885387;29;20048;-69
2023/08/22 11:12:39;;;;;;;6.88;3.42;;;28.40;96.00;;;;;;4898918;29;20045;-69
2023/08/22 11:15:05;;;;;;;5.90;2.90;;;28.30;96.20;;;;;;4898168;29;20047;-69
2023/08/22 11:17:31;;;;;;;5.68;2.58;;;28.40;96.50;;;;;;4891612;29;20040;-69
2023/08/22 11:20:00;;;;;;;6.55;2.70;;;28.40;96.40;;;;;;4896464;29;20074;-70
2023/08/22 11:22:25;;;;;;;6.82;2.60;;;28.50;96.40;;;;;;4888717;29;20139;-70
2023/08/22 11:24:52;;;;;;;7.00;2.63;;;28.60;96.00;;;;;;4893970;29;20131;-69
2023/08/22 11:27:18;;;;;;;5.53;2.78;;;28.60;96.00;;;;;;4878526;29;20049;-69
2023/08/22 11:29:45;;;;;;;7.43;2.63;;;28.60;96.00;;;;;;4880980;29;20052;-69
2023/08/22 11:32:31;;;;;;;5.75;2.60;;;28.60;95.80;;;;;;4879148;29;20052;-71
2023/08/22 11:35:01;;;;;;;7.13;2.63;;;28.70;96.30;;;;;;4879387;29;20052;-76
2023/08/22 11:37:28;;;;;;;6.90;2.65;;;28.80;96.20;;;;;;4877781;29;20111;-70
2023/08/22 11:39:57;;;;;;;5.20;2.05;;;28.80;95.80;;;;;;4880442;29;20041;-69
2023/08/22 11:42:24;;;;;;;5.85;2.10;;;28.90;95.80;;;;;;4878053;29;20045;-69
2023/08/22 11:45:06;;;;;;;5.15;1.77;;;28.80;95.40;;;;;;4879628;29;20089;-69
2023/08/22 11:47:41;;;;;;;4.43;2.00;;;28.70;95.50;;;;;;4884461;29;20049;-70
2023/08/22 11:50:17;;;;;;;4.30;1.92;;;28.60;95.60;;;;;;4880278;29;20044;-70
2023/08/22 11:52:45;;;;;;;6.70;2.20;;;28.40;95.40;;;;;;4878094;29;20470;-70
2023/08/22 11:55:14;;;;;;;4.60;1.90;;;28.30;95.70;;;;;;4877917;29;20060;-69
2023/08/22 11:57:41;;;;;;;5.03;1.80;;;28.20;95.80;;;;;;4879661;29;20380;-70
2023/08/22 12:00:10;;;;;;;3.25;1.60;;;28.30;95.60;;;;;;4878455;29;20131;-69
2023/08/22 12:02:37;;;;;;;5.63;1.80;;;28.30;95.20;;;;;;4880134;29;20049;-69
2023/08/22 12:05:03;;;;;;;4.43;1.80;;;28.30;94.70;;;;;;4877529;29;20092;-70
2023/08/22 12:07:40;;;;;;;2.92;1.55;;;28.20;94.90;;;;;;4878942;29;20491;-70
2023/08/22 12:10:07;;;;;;;4.07;1.50;;;28.30;94.60;;;;;;4878085;29;20057;-70
2023/08/22 12:12:33;;;;;;;3.75;1.50;;;28.20;94.20;;;;;;4890218;29;20056;-68
2023/08/22 12:14:59;;;;;;;4.28;1.40;;;28.30;94.20;;;;;;4882569;29;20049;-69
2023/08/22 12:17:25;;;;;;;4.20;1.73;;;28.30;94.20;;;;;;4879672;29;20545;-69
2023/08/22 12:19:51;;;;;;;4.78;1.77;;;28.30;94.30;;;;;;4879969;29;20360;-70
2023/08/22 12:22:17;;;;;;;6.97;1.58;;;28.30;94.40;;;;;;4880923;29;20060;-70
2023/08/22 12:24:44;;;;;;;3.63;1.48;;;28.20;94.30;;;;;;4880506;29;20631;-68
2023/08/22 12:27:13;;;;;;;5.30;1.70;;;28.20;94.50;;;;;;4877998;29;20104;-71
2023/08/22 12:29:41;;;;;;;4.05;1.63;;;28.20;94.40;;;;;;4877414;29;20531;-70
2023/08/22 12:32:07;;;;;;;5.78;1.98;;;28.10;94.40;;;;;;4884591;29;20048;-71
2023/08/22 12:34:33;;;;;;;3.63;1.80;;;28.10;94.80;;;;;;4861949;29;20176;-69
2023/08/22 12:36:59;;;;;;;6.75;2.20;;;28.20;95.20;;;;;;4877358;29;20048;-70
2023/08/22 12:39:25;;;;;;;5.43;2.50;;;28.30;95.30;;;;;;4876146;29;20388;-70
2023/08/22 12:41:51;;;;;;;3.55;1.83;;;28.30;95.20;;;;;;4887821;29;20051;-70